createdAt,value
2023-03-11T00:00:47.090Z,1.50
2023-03-11T00:03:15.430Z,1.80
2023-03-11T00:05:45.050Z,1.92
2023-03-11T00:08:18.721Z,1.80
2023-03-11T00:10:48.078Z,1.58
2023-03-11T00:13:16.214Z,1.67
2023-03-11T00:15:45.550Z,1.42
2023-03-11T00:18:12.598Z,1.67
2023-03-11T00:20:43.024Z,1.50
2023-03-11T00:23:10.670Z,1.63
2023-03-11T00:25:38.733Z,1.40
2023-03-11T00:28:07.522Z,1.52
2023-03-11T00:30:35.234Z,1.63
2023-03-11T00:33:02.236Z,1.35
2023-03-11T00:35:31.923Z,1.40
2023-03-11T00:38:02.094Z,1.88
2023-03-11T00:40:30.864Z,1.67
2023-03-11T00:42:58.772Z,1.67
2023-03-11T00:45:27.034Z,1.85
2023-03-11T00:47:54.895Z,1.50
2023-03-11T00:50:28.054Z,1.50
2023-03-11T00:52:55.411Z,1.20
2023-03-11T00:55:30.918Z,2.22
2023-03-11T00:58:05.141Z,1.60
2023-03-11T01:00:39.345Z,1.98
2023-03-11T01:03:06.612Z,1.25
2023-03-11T01:05:34.734Z,1.25
2023-03-11T01:08:03.607Z,1.55
2023-03-11T01:10:36.194Z,1.70
2023-03-11T01:13:03.918Z,1.67
2023-03-11T01:15:36.967Z,1.17
2023-03-11T01:18:05.555Z,1.58
2023-03-11T01:20:34.216Z,1.25
2023-03-11T01:23:01.075Z,1.95
2023-03-11T01:25:28.817Z,1.55
2023-03-11T01:27:58.343Z,1.63
2023-03-11T01:30:27.192Z,1.77
2023-03-11T01:32:55.893Z,1.65
2023-03-11T01:35:25.351Z,1.60
2023-03-11T01:37:54.153Z,1.95
2023-03-11T01:40:35.888Z,1.38
2023-03-11T01:43:26.955Z,1.50
2023-03-11T01:45:54.697Z,1.73
2023-03-11T01:48:25.248Z,1.73
2023-03-11T01:50:52.459Z,1.80
2023-03-11T01:53:19.909Z,1.80
2023-03-11T01:55:48.482Z,1.60
2023-03-11T01:58:20.970Z,1.50
2023-03-11T02:00:48.353Z,1.60
2023-03-11T02:03:22.666Z,1.80
2023-03-11T02:05:52.561Z,2.00
2023-03-11T02:08:19.931Z,1.63
2023-03-11T02:10:48.208Z,1.80
2023-03-11T02:13:16.779Z,1.85
2023-03-11T02:15:44.145Z,1.50
2023-03-11T02:18:14.649Z,1.55
2023-03-11T02:20:50.849Z,1.33
2023-03-11T02:23:21.304Z,1.30
2023-03-11T02:26:15.347Z,1.20
2023-03-11T02:28:45.794Z,1.90
2023-03-11T02:31:13.947Z,1.90
2023-03-11T02:33:43.114Z,1.65
2023-03-11T02:36:34.131Z,1.48
2023-03-11T02:39:01.452Z,1.55
2023-03-11T02:41:30.389Z,2.35
2023-03-11T02:43:58.190Z,2.10
2023-03-11T02:46:25.949Z,1.55
2023-03-11T02:48:54.307Z,1.35
2023-03-11T02:51:21.789Z,1.73
2023-03-11T02:53:54.760Z,1.20
2023-03-11T02:56:22.086Z,2.17
2023-03-11T02:58:49.359Z,1.75
2023-03-11T03:01:16.889Z,2.45
2023-03-11T03:03:45.967Z,1.55
2023-03-11T03:06:13.694Z,1.85
2023-03-11T03:08:40.680Z,1.92
2023-03-11T03:11:07.757Z,1.92
2023-03-11T03:13:34.718Z,1.80
2023-03-11T03:16:02.168Z,1.60
2023-03-11T03:18:29.346Z,2.08
2023-03-11T03:20:56.639Z,1.70
2023-03-11T03:23:24.182Z,2.03
2023-03-11T03:25:51.183Z,1.70
2023-03-11T03:28:18.261Z,2.20
2023-03-11T03:30:47.159Z,2.25
2023-03-11T03:33:15.138Z,1.77
2023-03-11T03:35:43.946Z,2.55
2023-03-11T03:38:21.313Z,2.20
2023-03-11T03:40:50.660Z,1.98
2023-03-11T03:43:20.010Z,2.13
2023-03-11T03:45:59.749Z,1.98
2023-03-11T03:48:30.614Z,2.22
2023-03-11T03:51:03.491Z,1.98
2023-03-11T03:53:31.334Z,1.88
2023-03-11T03:55:58.892Z,2.30
2023-03-11T03:58:25.836Z,1.90
2023-03-11T04:00:57.111Z,2.05
2023-03-11T04:03:24.668Z,2.65
2023-03-11T04:06:16.803Z,2.22
2023-03-11T04:08:44.172Z,2.95
2023-03-11T04:11:12.345Z,1.83
2023-03-11T04:13:39.747Z,2.85
2023-03-11T04:16:07.915Z,2.42
2023-03-11T04:18:35.357Z,2.03
2023-03-11T04:21:06.681Z,2.03
2023-03-11T04:23:34.439Z,1.75
2023-03-11T04:26:03.051Z,2.47
2023-03-11T04:28:30.531Z,1.90
2023-03-11T04:30:58.033Z,1.85
2023-03-11T04:33:25.783Z,1.30
2023-03-11T04:35:53.061Z,2.15
2023-03-11T04:38:20.422Z,1.98
2023-03-11T04:40:48.025Z,2.15
2023-03-11T04:43:15.805Z,2.67
2023-03-11T04:45:43.434Z,2.45
2023-03-11T04:48:11.123Z,2.00
2023-03-11T04:50:40.201Z,2.20
2023-03-11T04:53:07.583Z,2.33
2023-03-11T04:55:34.884Z,1.98
2023-03-11T04:58:02.216Z,1.95
2023-03-11T05:00:29.884Z,1.80
2023-03-11T05:03:07.472Z,1.65
2023-03-11T05:05:35.423Z,2.20
2023-03-11T05:08:03.374Z,2.22
2023-03-11T05:10:32.146Z,2.00
2023-03-11T05:13:02.132Z,1.73
2023-03-11T05:15:33.250Z,2.03
2023-03-11T05:18:02.743Z,1.92
2023-03-11T05:20:31.497Z,1.90
2023-03-11T05:22:59.296Z,1.73
2023-03-11T05:25:29.056Z,2.47
2023-03-11T05:27:56.584Z,2.08
2023-03-11T05:30:23.708Z,1.60
2023-03-11T05:32:51.039Z,1.67
2023-03-11T05:35:18.885Z,2.33
2023-03-11T05:37:49.580Z,1.83
2023-03-11T05:40:18.307Z,2.35
2023-03-11T05:42:45.542Z,2.45
2023-03-11T05:45:14.627Z,2.03
2023-03-11T05:47:43.998Z,1.98
2023-03-11T05:50:13.466Z,2.10
2023-03-11T05:52:42.068Z,1.88
2023-03-11T05:55:11.523Z,2.90
2023-03-11T05:57:40.341Z,2.08
2023-03-11T06:00:12.147Z,2.08
2023-03-11T06:02:45.951Z,1.70
2023-03-11T06:05:16.675Z,2.28
2023-03-11T06:07:45.814Z,2.30
2023-03-11T06:10:13.677Z,1.92
2023-03-11T06:12:41.592Z,2.05
2023-03-11T06:15:30.686Z,2.30
2023-03-11T06:17:59.366Z,2.17
2023-03-11T06:20:27.268Z,2.13
2023-03-11T06:22:54.627Z,2.38
2023-03-11T06:25:23.937Z,2.53
2023-03-11T06:27:53.373Z,2.28
2023-03-11T06:30:21.632Z,1.63
2023-03-11T06:32:56.599Z,1.85
2023-03-11T06:35:24.010Z,1.95
2023-03-11T06:37:51.219Z,2.33
2023-03-11T06:40:18.774Z,2.33
2023-03-11T06:42:48.729Z,2.25
2023-03-11T06:45:20.166Z,2.28
2023-03-11T06:47:48.058Z,2.53
2023-03-11T06:50:15.403Z,1.90
2023-03-11T06:52:42.863Z,2.33
2023-03-11T06:55:10.789Z,1.60
2023-03-11T06:57:37.815Z,2.58
2023-03-11T07:00:12.354Z,2.03
2023-03-11T07:02:42.166Z,2.13
2023-03-11T07:05:10.039Z,2.38
2023-03-11T07:07:37.592Z,3.28
2023-03-11T07:10:06.051Z,2.30
2023-03-11T07:12:33.489Z,1.98
2023-03-11T07:15:01.006Z,2.10
2023-03-11T07:17:29.658Z,2.53
2023-03-11T07:19:57.110Z,1.95
2023-03-11T07:22:24.600Z,2.25
2023-03-11T07:24:51.849Z,2.35
2023-03-11T07:27:19.710Z,2.15
2023-03-11T07:29:47.066Z,4.15
2023-03-11T07:32:14.308Z,2.55
2023-03-11T07:34:41.788Z,2.70
2023-03-11T07:37:09.250Z,2.38
2023-03-11T07:39:36.651Z,2.20
2023-03-11T07:42:05.643Z,2.15
2023-03-11T07:44:36.946Z,2.58
2023-03-11T07:47:05.197Z,2.35
2023-03-11T07:49:32.755Z,2.40
2023-03-11T07:52:00.133Z,2.10
2023-03-11T07:54:27.449Z,2.40
2023-03-11T07:56:54.737Z,2.65
2023-03-11T07:59:22.369Z,2.10
2023-03-11T08:01:50.643Z,3.33
2023-03-11T08:04:18.226Z,2.20
2023-03-11T08:06:47.251Z,2.42
2023-03-11T08:09:14.867Z,2.72
2023-03-11T08:11:42.104Z,2.25
2023-03-11T08:14:09.356Z,2.50
2023-03-11T08:16:36.795Z,2.28
2023-03-11T08:19:04.028Z,2.78
2023-03-11T08:21:32.070Z,2.20
2023-03-11T08:24:00.924Z,2.10
2023-03-11T08:26:28.380Z,2.03
2023-03-11T08:28:56.225Z,2.05
2023-03-11T08:31:26.662Z,2.42
2023-03-11T08:33:57.512Z,1.85
2023-03-11T08:36:24.607Z,2.13
2023-03-11T08:38:52.106Z,2.03
2023-03-11T08:41:19.673Z,2.20
2023-03-11T08:43:47.112Z,3.03
2023-03-11T08:46:27.627Z,2.03
2023-03-11T08:48:55.688Z,2.50
2023-03-11T08:51:24.166Z,2.03
2023-03-11T08:53:51.592Z,2.47
2023-03-11T08:56:19.374Z,2.53
2023-03-11T08:58:47.604Z,2.15
2023-03-11T09:01:15.377Z,2.35
2023-03-11T09:03:42.997Z,2.05
2023-03-11T09:06:15.570Z,2.30
2023-03-11T09:08:45.356Z,2.13
2023-03-11T09:11:15.602Z,2.63
2023-03-11T09:13:43.613Z,2.00
2023-03-11T09:16:17.196Z,1.98
2023-03-11T09:18:46.029Z,1.52
2023-03-11T09:21:13.680Z,1.38
2023-03-11T09:23:43.607Z,2.08
2023-03-11T09:26:11.910Z,1.77
2023-03-11T09:28:39.974Z,1.98
2023-03-11T09:31:07.602Z,2.10
2023-03-11T09:33:40.293Z,2.35
2023-03-11T09:36:08.194Z,1.63
2023-03-11T09:38:35.435Z,1.50
2023-03-11T09:41:17.415Z,1.80
2023-03-11T09:43:59.493Z,1.83
2023-03-11T09:46:52.183Z,1.85
2023-03-11T09:49:47.031Z,1.77
2023-03-11T09:52:16.602Z,1.77
2023-03-11T09:54:47.636Z,1.60
2023-03-11T09:57:28.399Z,1.60
2023-03-11T09:59:56.119Z,1.75
2023-03-11T10:02:27.147Z,1.70
2023-03-11T10:04:59.440Z,1.60
2023-03-11T10:07:33.523Z,1.40
2023-03-11T10:10:00.866Z,1.50
2023-03-11T10:13:07.864Z,1.80
2023-03-11T10:15:35.634Z,1.65
2023-03-11T10:18:09.425Z,1.35
2023-03-11T10:20:53.563Z,1.83
2023-03-11T10:24:21.752Z,1.33
2023-03-11T10:26:52.882Z,1.58
2023-03-11T10:29:20.091Z,1.63
2023-03-11T10:32:14.653Z,1.98
2023-03-11T10:34:53.605Z,1.33
2023-03-11T10:37:48.050Z,1.58
2023-03-11T10:40:34.636Z,1.73
2023-03-11T10:43:06.003Z,1.37
2023-03-11T10:45:44.862Z,1.30
2023-03-11T10:48:17.276Z,1.30
2023-03-11T10:50:58.064Z,1.33
2023-03-11T10:53:25.256Z,1.38
2023-03-11T10:55:55.829Z,2.00
2023-03-11T10:58:25.992Z,1.42
2023-03-11T11:01:21.656Z,1.58
2023-03-11T11:03:51.470Z,2.03
2023-03-11T11:06:31.682Z,1.55
2023-03-11T11:09:22.251Z,1.50
2023-03-11T11:12:15.760Z,1.30
2023-03-11T11:14:46.705Z,1.05
2023-03-11T11:17:32.453Z,1.30
2023-03-11T11:20:01.212Z,1.38
2023-03-11T11:22:28.872Z,1.40
2023-03-11T11:24:56.492Z,1.48
2023-03-11T11:27:32.880Z,1.73
2023-03-11T11:30:09.015Z,1.30
2023-03-11T11:32:37.265Z,1.42
2023-03-11T11:35:07.320Z,1.52
2023-03-11T11:37:37.863Z,1.20
2023-03-11T11:40:20.057Z,1.75
2023-03-11T11:42:55.945Z,2.00
2023-03-11T11:45:35.173Z,1.65
2023-03-11T11:48:15.321Z,1.40
2023-03-11T11:50:52.017Z,1.33
2023-03-11T11:53:24.813Z,1.40
2023-03-11T11:55:53.930Z,1.75
2023-03-11T11:58:23.818Z,1.33
2023-03-11T12:00:51.095Z,1.23
2023-03-11T12:03:19.284Z,1.58
2023-03-11T12:05:58.104Z,1.40
2023-03-11T12:08:47.480Z,1.27
2023-03-11T12:11:32.809Z,1.63
2023-03-11T12:14:21.591Z,1.60
2023-03-11T12:16:59.075Z,1.27
2023-03-11T12:19:50.845Z,1.10
2023-03-11T12:22:59.735Z,1.48
2023-03-11T12:25:54.282Z,1.73
2023-03-11T12:28:36.029Z,1.83
2023-03-11T12:31:07.676Z,1.85
2023-03-11T12:33:38.360Z,1.50
2023-03-11T12:36:07.222Z,1.27
2023-03-11T12:38:40.271Z,1.35
2023-03-11T12:41:08.811Z,1.45
2023-03-11T12:43:36.029Z,1.42
2023-03-11T12:46:05.336Z,1.60
2023-03-11T12:48:34.010Z,1.13
2023-03-11T12:51:01.317Z,1.60
2023-03-11T12:53:49.091Z,2.10
2023-03-11T12:56:37.386Z,1.52
2023-03-11T12:59:19.529Z,1.85
2023-03-11T13:02:19.853Z,1.92
2023-03-11T13:05:09.996Z,1.92
2023-03-11T13:07:47.938Z,1.42
2023-03-11T13:10:36.425Z,1.55
2023-03-11T13:13:22.284Z,1.55
2023-03-11T13:15:50.938Z,1.30
2023-03-11T13:18:24.798Z,1.30
2023-03-11T13:20:59.430Z,1.02
2023-03-11T13:24:12.811Z,1.40
2023-03-11T13:26:50.881Z,1.40
2023-03-11T13:29:36.812Z,1.27
2023-03-11T13:32:21.398Z,1.73
2023-03-11T13:34:57.424Z,1.40
2023-03-11T13:37:42.981Z,1.33
2023-03-11T13:40:33.055Z,1.60
2023-03-11T13:43:26.385Z,1.33
2023-03-11T13:46:14.658Z,1.40
2023-03-11T13:48:48.066Z,1.45
2023-03-11T13:51:23.079Z,1.33
2023-03-11T13:54:09.268Z,1.27
2023-03-11T13:56:44.397Z,1.70
2023-03-11T13:59:17.992Z,1.90
2023-03-11T14:01:53.206Z,1.40
2023-03-11T14:04:26.681Z,1.38
2023-03-11T14:06:53.904Z,1.98
2023-03-11T14:09:22.835Z,1.80
2023-03-11T14:11:52.425Z,1.52
2023-03-11T14:14:44.845Z,1.50
2023-03-11T14:17:16.256Z,1.50
2023-03-11T14:19:44.296Z,2.17
2023-03-11T14:22:11.322Z,1.67
2023-03-11T14:24:39.676Z,2.08
2023-03-11T14:27:09.458Z,1.55
2023-03-11T14:29:37.542Z,1.80
2023-03-11T14:32:29.985Z,1.70
2023-03-11T14:34:57.701Z,1.88
2023-03-11T14:37:26.285Z,2.55
2023-03-11T14:39:54.264Z,1.63
2023-03-11T14:42:35.580Z,1.73
2023-03-11T14:45:05.702Z,1.52
2023-03-11T14:47:32.611Z,1.70
2023-03-11T14:50:00.266Z,1.80
2023-03-11T14:52:47.750Z,1.80
2023-03-11T14:55:19.550Z,2.08
2023-03-11T14:57:51.101Z,1.90
2023-03-11T15:00:35.736Z,1.35
2023-03-11T15:03:17.571Z,1.75
2023-03-11T15:05:54.773Z,1.67
2023-03-11T15:08:25.767Z,1.40
2023-03-11T15:11:10.660Z,1.33
2023-03-11T15:13:39.136Z,1.33
2023-03-11T15:16:20.997Z,1.20
2023-03-11T15:18:48.103Z,1.13
2023-03-11T15:21:20.694Z,1.08
2023-03-11T15:24:06.389Z,1.33
2023-03-11T15:26:35.921Z,1.10
2023-03-11T15:29:23.263Z,1.23
2023-03-11T15:31:50.354Z,1.13
2023-03-11T15:34:17.119Z,0.90
2023-03-11T15:36:50.011Z,1.30
2023-03-11T15:39:24.800Z,1.05
2023-03-11T15:42:01.362Z,1.20
2023-03-11T15:44:33.371Z,1.27
2023-03-11T15:47:00.948Z,1.30
2023-03-11T15:49:29.485Z,1.02
2023-03-11T15:52:00.184Z,1.23
2023-03-11T15:54:27.543Z,1.42
2023-03-11T15:56:57.873Z,1.38
2023-03-11T15:59:25.519Z,1.20
2023-03-11T16:01:52.372Z,1.38
2023-03-11T16:04:20.453Z,1.00
2023-03-11T16:06:59.425Z,1.35
2023-03-11T16:09:31.600Z,1.15
2023-03-11T16:11:58.486Z,1.20
2023-03-11T16:14:25.444Z,1.08
2023-03-11T16:16:52.271Z,1.20
2023-03-11T16:19:19.091Z,1.00
2023-03-11T16:21:50.239Z,1.20
2023-03-11T16:24:21.004Z,1.40
2023-03-11T16:26:49.212Z,1.20
2023-03-11T16:29:19.647Z,1.08
2023-03-11T16:31:48.886Z,1.17
2023-03-11T16:34:16.194Z,1.25
2023-03-11T16:36:43.457Z,1.33
2023-03-11T16:39:10.382Z,1.70
2023-03-11T16:41:42.668Z,1.38
2023-03-11T16:44:10.074Z,1.38
2023-03-11T16:46:37.673Z,1.00
2023-03-11T16:49:05.476Z,1.15
2023-03-11T16:51:33.092Z,1.23
2023-03-11T16:54:00.386Z,1.42
2023-03-11T16:56:28.826Z,1.48
2023-03-11T16:58:56.974Z,1.98
2023-03-11T17:01:23.861Z,1.58
2023-03-11T17:03:52.328Z,1.30
2023-03-11T17:06:20.351Z,1.67
2023-03-11T17:08:49.638Z,1.58
2023-03-11T17:11:22.953Z,4.75
2023-03-11T17:13:53.382Z,2.00
2023-03-11T17:16:21.284Z,1.60
2023-03-11T17:18:48.116Z,1.30
2023-03-11T17:21:16.437Z,1.70
2023-03-11T17:23:43.891Z,1.38
2023-03-11T17:26:13.237Z,1.85
2023-03-11T17:28:40.826Z,2.88
2023-03-11T17:31:15.205Z,2.35
2023-03-11T17:33:42.581Z,2.60
2023-03-11T17:36:13.744Z,3.15
2023-03-11T17:38:40.584Z,3.00
2023-03-11T17:41:12.562Z,3.22
2023-03-11T17:43:40.197Z,2.88
2023-03-11T17:46:09.376Z,2.33
2023-03-11T17:48:36.376Z,2.95
2023-03-11T17:51:12.112Z,3.05
2023-03-11T17:53:40.446Z,3.08
2023-03-11T17:56:07.958Z,3.22
2023-03-11T17:58:35.454Z,2.72
2023-03-11T18:01:08.462Z,2.60
2023-03-11T18:03:36.025Z,2.55
2023-03-11T18:06:05.080Z,3.33
2023-03-11T18:08:32.777Z,3.60
2023-03-11T18:11:08.464Z,2.75
2023-03-11T18:13:35.977Z,3.13
2023-03-11T18:16:15.160Z,3.88
2023-03-11T18:18:43.248Z,3.00
2023-03-11T18:21:16.339Z,3.33
2023-03-11T18:23:43.678Z,3.42
2023-03-11T18:26:13.738Z,3.33
2023-03-11T18:28:42.475Z,3.53
2023-03-11T18:31:12.771Z,3.40
2023-03-11T18:33:41.305Z,3.58
2023-03-11T18:36:33.170Z,3.15
2023-03-11T18:39:01.611Z,2.78
2023-03-11T18:41:31.802Z,2.88
2023-03-11T18:43:59.219Z,3.22
2023-03-11T18:46:28.818Z,2.88
2023-03-11T18:48:57.631Z,2.47
2023-03-11T18:51:26.418Z,2.00
2023-03-11T18:53:53.212Z,2.65
2023-03-11T18:56:20.257Z,1.70
2023-03-11T18:58:47.500Z,1.55
2023-03-11T19:01:20.363Z,2.17
2023-03-11T19:04:05.988Z,2.03
2023-03-11T19:06:32.890Z,1.93
2023-03-11T19:08:59.809Z,2.30
2023-03-11T19:11:27.156Z,1.95
2023-03-11T19:13:54.785Z,1.92
2023-03-11T19:16:24.953Z,1.75
2023-03-11T19:18:53.899Z,2.10
2023-03-11T19:21:22.280Z,2.20
2023-03-11T19:23:52.760Z,2.42
2023-03-11T19:26:21.041Z,1.92
2023-03-11T19:28:50.706Z,2.13
2023-03-11T19:31:17.648Z,2.35
2023-03-11T19:33:50.120Z,2.03
2023-03-11T19:36:17.594Z,2.45
2023-03-11T19:38:44.543Z,3.38
2023-03-11T19:41:18.993Z,2.65
2023-03-11T19:43:47.411Z,2.53
2023-03-11T19:46:17.328Z,3.50
2023-03-11T19:48:44.642Z,2.97
2023-03-11T19:51:12.204Z,3.17
2023-03-11T19:53:40.732Z,2.90
2023-03-11T19:56:08.800Z,3.90
2023-03-11T19:58:36.457Z,3.30
2023-03-11T20:01:04.129Z,3.63
2023-03-11T20:03:31.704Z,3.60
2023-03-11T20:06:04.798Z,3.72
2023-03-11T20:08:36.451Z,3.63
2023-03-11T20:11:04.167Z,3.05
2023-03-11T20:13:31.550Z,3.15
2023-03-11T20:16:07.706Z,3.88
2023-03-11T20:18:34.824Z,3.63
2023-03-11T20:21:06.537Z,3.53
2023-03-11T20:23:34.129Z,4.07
2023-03-11T20:26:05.861Z,3.60
2023-03-11T20:28:33.155Z,4.05
2023-03-11T20:31:06.407Z,3.85
2023-03-11T20:33:33.820Z,3.10
2023-03-11T20:36:08.736Z,3.92
2023-03-11T20:38:36.403Z,4.10
2023-03-11T20:41:08.261Z,3.40
2023-03-11T20:43:36.381Z,3.95
2023-03-11T20:46:04.499Z,2.92
2023-03-11T20:48:31.854Z,3.75
2023-03-11T20:51:07.609Z,3.58
2023-03-11T20:53:34.855Z,3.95
2023-03-11T20:56:08.246Z,3.92
2023-03-11T20:58:35.995Z,3.90
2023-03-11T21:01:16.386Z,3.75
2023-03-11T21:03:44.275Z,3.95
2023-03-11T21:06:23.289Z,4.25
2023-03-11T21:08:52.676Z,3.88
2023-03-11T21:11:20.082Z,3.92
2023-03-11T21:13:47.626Z,4.05
2023-03-11T21:16:14.921Z,4.22
2023-03-11T21:18:44.327Z,4.40
2023-03-11T21:21:12.850Z,5.18
2023-03-11T21:23:41.137Z,4.13
2023-03-11T21:26:08.570Z,3.80
2023-03-11T21:28:35.904Z,4.70
2023-03-11T21:31:06.477Z,4.30
2023-03-11T21:33:33.865Z,4.75
2023-03-11T21:36:01.398Z,4.47
2023-03-11T21:38:29.319Z,4.20
2023-03-11T21:41:07.722Z,4.53
2023-03-11T21:43:35.159Z,4.75
2023-03-11T21:46:02.756Z,4.47
2023-03-11T21:48:30.038Z,3.63
2023-03-11T21:50:57.058Z,3.72
2023-03-11T21:53:23.902Z,4.30
2023-03-11T21:55:52.152Z,3.97
2023-03-11T21:58:19.505Z,3.95
2023-03-11T22:00:47.063Z,4.25
2023-03-11T22:03:14.512Z,3.50
2023-03-11T22:05:43.013Z,4.00
2023-03-11T22:08:11.433Z,4.22
2023-03-11T22:10:38.869Z,4.32
2023-03-11T22:13:06.240Z,4.38
2023-03-11T22:15:33.762Z,4.10
2023-03-11T22:18:00.641Z,4.40
2023-03-11T22:20:27.821Z,3.70
2023-03-11T22:22:54.703Z,3.80
2023-03-11T22:25:21.547Z,3.58
2023-03-11T22:27:48.828Z,3.67
2023-03-11T22:30:16.089Z,3.03
2023-03-11T22:32:43.511Z,3.53
2023-03-11T22:35:10.420Z,3.00
2023-03-11T22:37:37.660Z,3.05
2023-03-11T22:40:09.977Z,2.90
2023-03-11T22:42:37.583Z,3.25
2023-03-11T22:45:06.248Z,3.28
2023-03-11T22:47:33.489Z,3.42
2023-03-11T22:50:00.771Z,2.78
2023-03-11T22:52:28.058Z,2.72
2023-03-11T22:54:55.039Z,2.92
2023-03-11T22:57:21.935Z,3.40
2023-03-11T22:59:49.169Z,3.67
2023-03-11T23:02:16.393Z,4.07
2023-03-11T23:04:46.620Z,4.18
2023-03-11T23:07:13.495Z,3.40
2023-03-11T23:09:42.866Z,4.05
2023-03-11T23:12:10.240Z,3.97
2023-03-11T23:14:45.088Z,4.50
2023-03-11T23:17:12.668Z,4.35
2023-03-11T23:19:39.633Z,4.35
2023-03-11T23:22:07.072Z,3.75
2023-03-11T23:24:34.170Z,3.97
2023-03-11T23:27:04.760Z,4.10
2023-03-11T23:29:32.343Z,3.85
2023-03-11T23:31:59.615Z,3.65
2023-03-11T23:34:26.878Z,3.60
2023-03-11T23:36:54.354Z,3.95
2023-03-11T23:39:21.171Z,3.35
2023-03-11T23:41:48.374Z,3.20
2023-03-11T23:44:16.301Z,3.40
2023-03-11T23:46:43.579Z,3.80
2023-03-11T23:49:10.429Z,3.20
2023-03-11T23:51:37.651Z,3.92
2023-03-11T23:54:04.978Z,3.40
2023-03-11T23:56:31.845Z,3.33
2023-03-11T23:58:59.070Z,3.58
